sensor_id;sensor_type;location;lat;lon;timestamp;P1;durP1;ratioP1;P2;durP2;ratioP2
33190;SDS011;19554;42.652;23.364;2023-07-09T00:01:44;4.25;;;3.25;;
33190;SDS011;19554;42.652;23.364;2023-07-09T00:04:10;3.83;;;3.13;;
33190;SDS011;19554;42.652;23.364;2023-07-09T00:06:37;4.88;;;3.08;;
33190;SDS011;19554;42.652;23.364;2023-07-09T00:09:03;6.30;;;3.28;;
33190;SDS011;19554;42.652;23.364;2023-07-09T00:11:30;5.07;;;3.28;;
33190;SDS011;19554;42.652;23.364;2023-07-09T00:13:55;7.53;;;3.33;;
33190;SDS011;19554;42.652;23.364;2023-07-09T00:16:23;8.88;;;3.20;;
33190;SDS011;19554;42.652;23.364;2023-07-09T00:18:49;5.28;;;2.95;;
33190;SDS011;19554;42.652;23.364;2023-07-09T00:21:18;6.07;;;2.97;;
33190;SDS011;19554;42.652;23.364;2023-07-09T00:23:45;4.93;;;3.00;;
33190;SDS011;19554;42.652;23.364;2023-07-09T00:26:14;5.53;;;3.30;;
33190;SDS011;19554;42.652;23.364;2023-07-09T00:28:41;7.47;;;3.30;;
33190;SDS011;19554;42.652;23.364;2023-07-09T00:31:11;9.45;;;3.22;;
33190;SDS011;19554;42.652;23.364;2023-07-09T00:33:41;8.20;;;3.38;;
33190;SDS011;19554;42.652;23.364;2023-07-09T00:36:13;5.75;;;3.35;;
33190;SDS011;19554;42.652;23.364;2023-07-09T00:38:40;4.30;;;3.10;;
33190;SDS011;19554;42.652;23.364;2023-07-09T00:41:06;4.68;;;2.88;;
33190;SDS011;19554;42.652;23.364;2023-07-09T00:43:42;5.80;;;2.78;;
33190;SDS011;19554;42.652;23.364;2023-07-09T00:49:12;5.32;;;3.38;;
33190;SDS011;19554;42.652;23.364;2023-07-09T00:51:42;6.13;;;2.95;;
33190;SDS011;19554;42.652;23.364;2023-07-09T00:54:19;3.80;;;2.92;;
33190;SDS011;19554;42.652;23.364;2023-07-09T00:56:47;5.93;;;3.03;;
33190;SDS011;19554;42.652;23.364;2023-07-09T00:59:18;6.75;;;3.95;;
33190;SDS011;19554;42.652;23.364;2023-07-09T01:01:48;6.57;;;3.22;;
33190;SDS011;19554;42.652;23.364;2023-07-09T01:04:15;6.75;;;3.38;;
33190;SDS011;19554;42.652;23.364;2023-07-09T01:06:50;6.20;;;3.00;;
33190;SDS011;19554;42.652;23.364;2023-07-09T01:09:17;6.78;;;3.83;;
33190;SDS011;19554;42.652;23.364;2023-07-09T01:11:42;6.25;;;2.97;;
33190;SDS011;19554;42.652;23.364;2023-07-09T01:14:09;6.90;;;3.40;;
33190;SDS011;19554;42.652;23.364;2023-07-09T01:16:37;9.20;;;3.75;;
33190;SDS011;19554;42.652;23.364;2023-07-09T01:19:07;3.60;;;3.22;;
33190;SDS011;19554;42.652;23.364;2023-07-09T01:21:33;4.68;;;3.40;;
33190;SDS011;19554;42.652;23.364;2023-07-09T01:23:59;5.35;;;3.20;;
33190;SDS011;19554;42.652;23.364;2023-07-09T01:26:37;5.97;;;3.28;;
33190;SDS011;19554;42.652;23.364;2023-07-09T01:29:03;7.75;;;3.25;;
33190;SDS011;19554;42.652;23.364;2023-07-09T01:31:29;7.38;;;3.30;;
33190;SDS011;19554;42.652;23.364;2023-07-09T01:33:54;7.88;;;3.25;;
33190;SDS011;19554;42.652;23.364;2023-07-09T01:36:20;5.70;;;2.88;;
33190;SDS011;19554;42.652;23.364;2023-07-09T01:38:48;6.00;;;3.20;;
33190;SDS011;19554;42.652;23.364;2023-07-09T01:41:15;6.32;;;3.28;;
33190;SDS011;19554;42.652;23.364;2023-07-09T01:43:41;10.63;;;3.42;;
33190;SDS011;19554;42.652;23.364;2023-07-09T01:46:08;5.10;;;3.15;;
33190;SDS011;19554;42.652;23.364;2023-07-09T01:48:35;5.55;;;3.30;;
33190;SDS011;19554;42.652;23.364;2023-07-09T01:51:06;7.40;;;3.35;;
33190;SDS011;19554;42.652;23.364;2023-07-09T01:53:34;9.32;;;2.67;;
33190;SDS011;19554;42.652;23.364;2023-07-09T01:56:01;6.45;;;3.00;;
33190;SDS011;19554;42.652;23.364;2023-07-09T01:58:28;4.32;;;3.15;;
33190;SDS011;19554;42.652;23.364;2023-07-09T02:00:56;5.30;;;3.13;;
33190;SDS011;19554;42.652;23.364;2023-07-09T02:03:22;4.88;;;2.80;;
33190;SDS011;19554;42.652;23.364;2023-07-09T02:05:50;5.45;;;3.28;;
33190;SDS011;19554;42.652;23.364;2023-07-09T02:08:17;6.32;;;3.08;;
33190;SDS011;19554;42.652;23.364;2023-07-09T02:10:43;9.88;;;3.40;;
33190;SDS011;19554;42.652;23.364;2023-07-09T02:13:10;7.18;;;3.00;;
33190;SDS011;19554;42.652;23.364;2023-07-09T02:15:35;5.28;;;2.75;;
33190;SDS011;19554;42.652;23.364;2023-07-09T02:18:01;6.15;;;3.40;;
33190;SDS011;19554;42.652;23.364;2023-07-09T02:20:27;9.35;;;3.65;;
33190;SDS011;19554;42.652;23.364;2023-07-09T02:22:53;9.23;;;3.47;;
33190;SDS011;19554;42.652;23.364;2023-07-09T02:25:18;4.65;;;3.30;;
33190;SDS011;19554;42.652;23.364;2023-07-09T02:27:43;8.02;;;3.58;;
33190;SDS011;19554;42.652;23.364;2023-07-09T02:30:10;4.70;;;3.10;;
33190;SDS011;19554;42.652;23.364;2023-07-09T02:32:36;5.60;;;3.55;;
33190;SDS011;19554;42.652;23.364;2023-07-09T02:35:02;6.63;;;3.58;;
33190;SDS011;19554;42.652;23.364;2023-07-09T02:37:29;7.57;;;3.78;;
33190;SDS011;19554;42.652;23.364;2023-07-09T02:39:55;10.65;;;4.38;;
33190;SDS011;19554;42.652;23.364;2023-07-09T02:42:21;5.35;;;3.80;;
33190;SDS011;19554;42.652;23.364;2023-07-09T02:44:47;7.72;;;3.75;;
33190;SDS011;19554;42.652;23.364;2023-07-09T02:47:13;7.18;;;3.78;;
33190;SDS011;19554;42.652;23.364;2023-07-09T02:49:39;7.35;;;4.10;;
33190;SDS011;19554;42.652;23.364;2023-07-09T02:52:05;10.38;;;4.18;;
33190;SDS011;19554;42.652;23.364;2023-07-09T02:54:31;9.00;;;4.60;;
33190;SDS011;19554;42.652;23.364;2023-07-09T02:56:56;10.25;;;4.50;;
33190;SDS011;19554;42.652;23.364;2023-07-09T02:59:22;5.55;;;4.15;;
33190;SDS011;19554;42.652;23.364;2023-07-09T03:01:49;7.35;;;3.80;;
33190;SDS011;19554;42.652;23.364;2023-07-09T03:04:14;8.00;;;4.25;;
33190;SDS011;19554;42.652;23.364;2023-07-09T03:06:40;9.30;;;3.97;;
33190;SDS011;19554;42.652;23.364;2023-07-09T03:09:06;5.55;;;4.00;;
33190;SDS011;19554;42.652;23.364;2023-07-09T03:11:32;8.73;;;4.35;;
33190;SDS011;19554;42.652;23.364;2023-07-09T03:13:59;7.50;;;4.80;;
33190;SDS011;19554;42.652;23.364;2023-07-09T03:16:27;8.20;;;3.75;;
33190;SDS011;19554;42.652;23.364;2023-07-09T03:18:54;10.05;;;4.53;;
33190;SDS011;19554;42.652;23.364;2023-07-09T03:21:20;9.13;;;4.35;;
33190;SDS011;19554;42.652;23.364;2023-07-09T03:23:49;9.80;;;4.10;;
33190;SDS011;19554;42.652;23.364;2023-07-09T03:26:15;11.13;;;5.18;;
33190;SDS011;19554;42.652;23.364;2023-07-09T03:28:40;11.55;;;4.88;;
33190;SDS011;19554;42.652;23.364;2023-07-09T03:31:06;9.57;;;4.55;;
33190;SDS011;19554;42.652;23.364;2023-07-09T03:33:32;10.77;;;4.53;;
33190;SDS011;19554;42.652;23.364;2023-07-09T03:35:57;7.32;;;4.05;;
33190;SDS011;19554;42.652;23.364;2023-07-09T03:38:23;15.07;;;5.28;;
33190;SDS011;19554;42.652;23.364;2023-07-09T03:40:55;10.65;;;5.18;;
33190;SDS011;19554;42.652;23.364;2023-07-09T03:43:20;6.90;;;4.57;;
33190;SDS011;19554;42.652;23.364;2023-07-09T03:45:46;8.60;;;5.05;;
33190;SDS011;19554;42.652;23.364;2023-07-09T03:48:13;12.60;;;5.15;;
33190;SDS011;19554;42.652;23.364;2023-07-09T03:50:39;6.75;;;4.15;;
33190;SDS011;19554;42.652;23.364;2023-07-09T03:53:06;7.70;;;4.30;;
33190;SDS011;19554;42.652;23.364;2023-07-09T03:55:32;9.68;;;4.38;;
33190;SDS011;19554;42.652;23.364;2023-07-09T03:57:57;6.30;;;3.67;;
33190;SDS011;19554;42.652;23.364;2023-07-09T04:00:23;6.35;;;4.45;;
33190;SDS011;19554;42.652;23.364;2023-07-09T04:02:49;10.07;;;4.65;;
33190;SDS011;19554;42.652;23.364;2023-07-09T04:05:16;12.88;;;4.65;;
33190;SDS011;19554;42.652;23.364;2023-07-09T04:07:42;7.38;;;4.95;;
33190;SDS011;19554;42.652;23.364;2023-07-09T04:10:09;6.35;;;4.60;;
33190;SDS011;19554;42.652;23.364;2023-07-09T04:12:35;8.57;;;4.53;;
33190;SDS011;19554;42.652;23.364;2023-07-09T04:15:01;11.80;;;5.30;;
33190;SDS011;19554;42.652;23.364;2023-07-09T04:17:30;6.50;;;3.90;;
33190;SDS011;19554;42.652;23.364;2023-07-09T04:19:56;9.60;;;4.85;;
33190;SDS011;19554;42.652;23.364;2023-07-09T04:22:22;6.00;;;4.40;;
33190;SDS011;19554;42.652;23.364;2023-07-09T04:24:47;7.78;;;4.53;;
33190;SDS011;19554;42.652;23.364;2023-07-09T04:27:12;8.68;;;4.53;;
33190;SDS011;19554;42.652;23.364;2023-07-09T04:29:39;9.07;;;5.07;;
33190;SDS011;19554;42.652;23.364;2023-07-09T04:32:05;12.23;;;4.90;;
33190;SDS011;19554;42.652;23.364;2023-07-09T04:34:31;8.82;;;5.05;;
33190;SDS011;19554;42.652;23.364;2023-07-09T04:36:56;14.50;;;5.38;;
33190;SDS011;19554;42.652;23.364;2023-07-09T04:39:22;10.65;;;5.80;;
33190;SDS011;19554;42.652;23.364;2023-07-09T04:41:47;9.93;;;5.03;;
33190;SDS011;19554;42.652;23.364;2023-07-09T04:44:13;10.02;;;5.60;;
33190;SDS011;19554;42.652;23.364;2023-07-09T04:46:39;9.95;;;5.13;;
33190;SDS011;19554;42.652;23.364;2023-07-09T04:49:04;12.70;;;5.35;;
33190;SDS011;19554;42.652;23.364;2023-07-09T04:51:30;15.13;;;6.18;;
33190;SDS011;19554;42.652;23.364;2023-07-09T04:53:55;7.97;;;4.85;;
33190;SDS011;19554;42.652;23.364;2023-07-09T04:56:20;6.47;;;4.80;;
33190;SDS011;19554;42.652;23.364;2023-07-09T04:58:46;7.63;;;5.03;;
33190;SDS011;19554;42.652;23.364;2023-07-09T05:01:11;10.15;;;5.47;;
33190;SDS011;19554;42.652;23.364;2023-07-09T05:03:37;8.05;;;5.28;;
33190;SDS011;19554;42.652;23.364;2023-07-09T05:06:03;9.80;;;5.80;;
33190;SDS011;19554;42.652;23.364;2023-07-09T05:08:29;10.82;;;6.22;;
33190;SDS011;19554;42.652;23.364;2023-07-09T05:10:56;8.25;;;5.25;;
33190;SDS011;19554;42.652;23.364;2023-07-09T05:13:23;9.70;;;5.80;;
33190;SDS011;19554;42.652;23.364;2023-07-09T05:15:48;10.77;;;5.40;;
33190;SDS011;19554;42.652;23.364;2023-07-09T05:18:16;10.02;;;5.60;;
33190;SDS011;19554;42.652;23.364;2023-07-09T05:20:42;10.43;;;5.57;;
33190;SDS011;19554;42.652;23.364;2023-07-09T05:23:09;10.23;;;4.82;;
33190;SDS011;19554;42.652;23.364;2023-07-09T05:25:35;8.40;;;4.82;;
33190;SDS011;19554;42.652;23.364;2023-07-09T05:28:00;13.82;;;5.13;;
33190;SDS011;19554;42.652;23.364;2023-07-09T05:30:26;11.73;;;5.13;;
33190;SDS011;19554;42.652;23.364;2023-07-09T05:32:52;8.07;;;5.07;;
33190;SDS011;19554;42.652;23.364;2023-07-09T05:35:19;14.80;;;5.80;;
33190;SDS011;19554;42.652;23.364;2023-07-09T05:37:44;9.93;;;5.32;;
33190;SDS011;19554;42.652;23.364;2023-07-09T05:40:10;7.22;;;4.80;;
33190;SDS011;19554;42.652;23.364;2023-07-09T05:42:35;9.73;;;4.53;;
33190;SDS011;19554;42.652;23.364;2023-07-09T05:45:00;13.52;;;4.40;;
33190;SDS011;19554;42.652;23.364;2023-07-09T05:47:26;7.80;;;4.55;;
33190;SDS011;19554;42.652;23.364;2023-07-09T05:49:51;7.22;;;3.83;;
33190;SDS011;19554;42.652;23.364;2023-07-09T05:52:18;7.55;;;3.05;;
33190;SDS011;19554;42.652;23.364;2023-07-09T05:54:45;5.05;;;3.70;;
33190;SDS011;19554;42.652;23.364;2023-07-09T05:57:10;9.05;;;4.80;;
33190;SDS011;19554;42.652;23.364;2023-07-09T05:59:36;11.45;;;3.78;;
33190;SDS011;19554;42.652;23.364;2023-07-09T06:02:02;7.70;;;3.33;;
33190;SDS011;19554;42.652;23.364;2023-07-09T06:04:28;5.95;;;3.63;;
33190;SDS011;19554;42.652;23.364;2023-07-09T06:06:55;5.72;;;3.75;;
33190;SDS011;19554;42.652;23.364;2023-07-09T06:09:21;10.95;;;4.00;;
33190;SDS011;19554;42.652;23.364;2023-07-09T06:11:47;7.78;;;3.83;;
33190;SDS011;19554;42.652;23.364;2023-07-09T06:14:12;8.20;;;3.47;;
33190;SDS011;19554;42.652;23.364;2023-07-09T06:16:37;5.82;;;3.83;;
33190;SDS011;19554;42.652;23.364;2023-07-09T06:19:03;7.10;;;3.75;;
33190;SDS011;19554;42.652;23.364;2023-07-09T06:21:28;9.15;;;3.40;;
33190;SDS011;19554;42.652;23.364;2023-07-09T06:23:54;6.38;;;3.90;;
33190;SDS011;19554;42.652;23.364;2023-07-09T06:26:19;6.82;;;3.58;;
33190;SDS011;19554;42.652;23.364;2023-07-09T06:28:45;9.38;;;3.85;;
33190;SDS011;19554;42.652;23.364;2023-07-09T06:31:11;8.52;;;3.78;;
33190;SDS011;19554;42.652;23.364;2023-07-09T06:33:36;6.85;;;3.90;;
33190;SDS011;19554;42.652;23.364;2023-07-09T06:36:02;6.35;;;3.72;;
33190;SDS011;19554;42.652;23.364;2023-07-09T06:38:28;6.47;;;3.70;;
33190;SDS011;19554;42.652;23.364;2023-07-09T06:40:54;11.23;;;4.18;;
33190;SDS011;19554;42.652;23.364;2023-07-09T06:43:19;7.22;;;3.50;;
33190;SDS011;19554;42.652;23.364;2023-07-09T06:45:53;4.60;;;3.70;;
33190;SDS011;19554;42.652;23.364;2023-07-09T06:48:23;9.40;;;3.80;;
33190;SDS011;19554;42.652;23.364;2023-07-09T06:50:49;10.07;;;3.80;;
33190;SDS011;19554;42.652;23.364;2023-07-09T06:53:15;7.88;;;3.72;;
33190;SDS011;19554;42.652;23.364;2023-07-09T06:55:41;7.50;;;3.65;;
33190;SDS011;19554;42.652;23.364;2023-07-09T06:58:06;4.32;;;3.05;;
33190;SDS011;19554;42.652;23.364;2023-07-09T07:00:36;6.40;;;3.70;;
33190;SDS011;19554;42.652;23.364;2023-07-09T07:03:01;9.50;;;3.92;;
33190;SDS011;19554;42.652;23.364;2023-07-09T07:05:27;6.18;;;3.90;;
33190;SDS011;19554;42.652;23.364;2023-07-09T07:07:53;6.35;;;3.40;;
33190;SDS011;19554;42.652;23.364;2023-07-09T07:10:18;9.07;;;3.60;;
33190;SDS011;19554;42.652;23.364;2023-07-09T07:12:45;7.55;;;3.70;;
33190;SDS011;19554;42.652;23.364;2023-07-09T07:15:12;7.95;;;3.75;;
33190;SDS011;19554;42.652;23.364;2023-07-09T07:17:39;5.50;;;3.17;;
33190;SDS011;19554;42.652;23.364;2023-07-09T07:20:06;5.68;;;3.45;;
33190;SDS011;19554;42.652;23.364;2023-07-09T07:22:32;6.68;;;4.28;;
33190;SDS011;19554;42.652;23.364;2023-07-09T07:24:57;6.60;;;3.70;;
33190;SDS011;19554;42.652;23.364;2023-07-09T07:27:23;8.32;;;3.70;;
33190;SDS011;19554;42.652;23.364;2023-07-09T07:29:48;5.95;;;3.28;;
33190;SDS011;19554;42.652;23.364;2023-07-09T07:32:14;3.95;;;3.25;;
33190;SDS011;19554;42.652;23.364;2023-07-09T07:34:39;8.15;;;3.78;;
33190;SDS011;19554;42.652;23.364;2023-07-09T07:37:04;5.40;;;3.55;;
33190;SDS011;19554;42.652;23.364;2023-07-09T07:39:30;5.75;;;3.33;;
33190;SDS011;19554;42.652;23.364;2023-07-09T07:41:55;5.90;;;3.95;;
33190;SDS011;19554;42.652;23.364;2023-07-09T07:44:21;5.85;;;3.85;;
33190;SDS011;19554;42.652;23.364;2023-07-09T07:46:47;8.82;;;3.65;;
33190;SDS011;19554;42.652;23.364;2023-07-09T07:49:12;6.43;;;3.53;;
33190;SDS011;19554;42.652;23.364;2023-07-09T07:51:38;8.82;;;3.70;;
33190;SDS011;19554;42.652;23.364;2023-07-09T07:54:04;7.63;;;3.00;;
33190;SDS011;19554;42.652;23.364;2023-07-09T07:56:29;6.93;;;3.50;;
33190;SDS011;19554;42.652;23.364;2023-07-09T07:58:55;4.32;;;3.03;;
33190;SDS011;19554;42.652;23.364;2023-07-09T08:01:20;6.88;;;3.58;;
33190;SDS011;19554;42.652;23.364;2023-07-09T08:03:46;5.43;;;3.88;;
33190;SDS011;19554;42.652;23.364;2023-07-09T08:06:11;5.80;;;3.20;;
33190;SDS011;19554;42.652;23.364;2023-07-09T08:08:37;4.47;;;3.40;;
33190;SDS011;19554;42.652;23.364;2023-07-09T08:11:04;5.32;;;3.45;;
33190;SDS011;19554;42.652;23.364;2023-07-09T08:13:35;6.43;;;3.97;;
33190;SDS011;19554;42.652;23.364;2023-07-09T08:16:02;9.38;;;3.53;;
33190;SDS011;19554;42.652;23.364;2023-07-09T08:18:28;6.20;;;3.65;;
33190;SDS011;19554;42.652;23.364;2023-07-09T08:20:54;6.47;;;3.30;;
33190;SDS011;19554;42.652;23.364;2023-07-09T08:23:19;6.70;;;3.50;;
33190;SDS011;19554;42.652;23.364;2023-07-09T08:25:51;5.50;;;3.95;;
33190;SDS011;19554;42.652;23.364;2023-07-09T08:28:20;5.03;;;3.58;;
33190;SDS011;19554;42.652;23.364;2023-07-09T08:30:46;4.78;;;3.60;;
33190;SDS011;19554;42.652;23.364;2023-07-09T08:33:11;13.18;;;4.07;;
33190;SDS011;19554;42.652;23.364;2023-07-09T08:35:37;8.02;;;5.40;;
33190;SDS011;19554;42.652;23.364;2023-07-09T08:38:02;7.22;;;3.65;;
33190;SDS011;19554;42.652;23.364;2023-07-09T08:40:28;7.07;;;5.03;;
33190;SDS011;19554;42.652;23.364;2023-07-09T08:42:54;6.72;;;4.07;;
33190;SDS011;19554;42.652;23.364;2023-07-09T08:50:48;8.38;;;4.97;;
33190;SDS011;19554;42.652;23.364;2023-07-09T08:53:19;7.47;;;4.10;;
33190;SDS011;19554;42.652;23.364;2023-07-09T08:55:52;6.75;;;4.32;;
33190;SDS011;19554;42.652;23.364;2023-07-09T08:58:20;7.28;;;4.15;;
33190;SDS011;19554;42.652;23.364;2023-07-09T09:06:11;8.15;;;3.83;;
33190;SDS011;19554;42.652;23.364;2023-07-09T09:11:10;6.45;;;4.03;;
33190;SDS011;19554;42.652;23.364;2023-07-09T09:13:40;6.93;;;4.13;;
33190;SDS011;19554;42.652;23.364;2023-07-09T09:16:10;8.88;;;4.60;;
33190;SDS011;19554;42.652;23.364;2023-07-09T09:18:57;6.07;;;4.22;;
33190;SDS011;19554;42.652;23.364;2023-07-09T09:21:36;6.82;;;4.15;;
33190;SDS011;19554;42.652;23.364;2023-07-09T09:26:51;6.25;;;4.22;;
33190;SDS011;19554;42.652;23.364;2023-07-09T09:29:23;5.53;;;4.45;;
33190;SDS011;19554;42.652;23.364;2023-07-09T09:31:50;6.25;;;3.92;;
33190;SDS011;19554;42.652;23.364;2023-07-09T09:34:25;6.10;;;3.85;;
33190;SDS011;19554;42.652;23.364;2023-07-09T09:36:53;10.88;;;4.63;;
33190;SDS011;19554;42.652;23.364;2023-07-09T09:39:20;5.53;;;3.92;;
33190;SDS011;19554;42.652;23.364;2023-07-09T09:41:46;5.68;;;3.92;;
33190;SDS011;19554;42.652;23.364;2023-07-09T09:44:28;6.10;;;3.80;;
33190;SDS011;19554;42.652;23.364;2023-07-09T09:46:57;7.13;;;4.35;;
33190;SDS011;19554;42.652;23.364;2023-07-09T09:49:23;7.10;;;4.28;;
33190;SDS011;19554;42.652;23.364;2023-07-09T09:51:48;5.95;;;4.32;;
33190;SDS011;19554;42.652;23.364;2023-07-09T09:54:21;4.63;;;4.18;;
33190;SDS011;19554;42.652;23.364;2023-07-09T09:56:56;7.72;;;4.32;;
33190;SDS011;19554;42.652;23.364;2023-07-09T09:59:30;6.75;;;3.80;;
33190;SDS011;19554;42.652;23.364;2023-07-09T10:02:01;7.35;;;4.13;;
33190;SDS011;19554;42.652;23.364;2023-07-09T10:04:38;5.90;;;4.28;;
33190;SDS011;19554;42.652;23.364;2023-07-09T10:07:05;7.68;;;4.30;;
33190;SDS011;19554;42.652;23.364;2023-07-09T10:09:45;9.65;;;3.67;;
33190;SDS011;19554;42.652;23.364;2023-07-09T10:12:15;5.18;;;3.83;;
33190;SDS011;19554;42.652;23.364;2023-07-09T10:14:54;5.75;;;4.30;;
33190;SDS011;19554;42.652;23.364;2023-07-09T10:31:41;8.27;;;3.85;;
33190;SDS011;19554;42.652;23.364;2023-07-09T10:34:21;6.03;;;3.90;;
33190;SDS011;19554;42.652;23.364;2023-07-09T10:42:40;6.82;;;4.20;;
33190;SDS011;19554;42.652;23.364;2023-07-09T10:45:14;9.02;;;4.70;;
33190;SDS011;19554;42.652;23.364;2023-07-09T10:47:49;6.15;;;3.60;;
33190;SDS011;19554;42.652;23.364;2023-07-09T10:50:33;7.00;;;3.67;;
33190;SDS011;19554;42.652;23.364;2023-07-09T10:53:04;5.32;;;4.10;;
33190;SDS011;19554;42.652;23.364;2023-07-09T10:58:22;5.68;;;3.70;;
33190;SDS011;19554;42.652;23.364;2023-07-09T11:06:01;5.28;;;3.50;;
33190;SDS011;19554;42.652;23.364;2023-07-09T11:08:33;4.82;;;3.55;;
33190;SDS011;19554;42.652;23.364;2023-07-09T11:11:03;5.55;;;3.63;;
33190;SDS011;19554;42.652;23.364;2023-07-09T11:16:00;4.15;;;3.50;;
33190;SDS011;19554;42.652;23.364;2023-07-09T11:18:30;4.10;;;3.50;;
33190;SDS011;19554;42.652;23.364;2023-07-09T11:23:46;4.63;;;3.25;;
33190;SDS011;19554;42.652;23.364;2023-07-09T11:26:22;4.35;;;3.60;;
33190;SDS011;19554;42.652;23.364;2023-07-09T11:28:54;3.67;;;3.28;;
33190;SDS011;19554;42.652;23.364;2023-07-09T11:31:33;5.05;;;3.53;;
33190;SDS011;19554;42.652;23.364;2023-07-09T11:34:02;4.50;;;3.67;;
33190;SDS011;19554;42.652;23.364;2023-07-09T11:36:56;4.07;;;3.22;;
33190;SDS011;19554;42.652;23.364;2023-07-09T11:42:01;6.63;;;4.25;;
33190;SDS011;19554;42.652;23.364;2023-07-09T11:44:27;3.65;;;3.17;;
33190;SDS011;19554;42.652;23.364;2023-07-09T11:49:34;4.38;;;3.35;;
33190;SDS011;19554;42.652;23.364;2023-07-09T11:52:12;6.35;;;3.45;;
33190;SDS011;19554;42.652;23.364;2023-07-09T11:54:38;4.95;;;3.40;;
33190;SDS011;19554;42.652;23.364;2023-07-09T11:57:04;7.60;;;3.80;;
33190;SDS011;19554;42.652;23.364;2023-07-09T11:59:40;6.88;;;3.35;;
33190;SDS011;19554;42.652;23.364;2023-07-09T12:02:09;5.85;;;3.50;;
33190;SDS011;19554;42.652;23.364;2023-07-09T12:04:48;7.65;;;3.30;;
33190;SDS011;19554;42.652;23.364;2023-07-09T12:07:16;5.15;;;2.90;;
33190;SDS011;19554;42.652;23.364;2023-07-09T12:09:46;5.70;;;3.20;;
33190;SDS011;19554;42.652;23.364;2023-07-09T12:12:23;6.72;;;4.30;;
33190;SDS011;19554;42.652;23.364;2023-07-09T12:14:50;8.05;;;4.38;;
33190;SDS011;19554;42.652;23.364;2023-07-09T12:17:16;7.15;;;3.35;;
33190;SDS011;19554;42.652;23.364;2023-07-09T12:19:41;5.78;;;3.60;;
33190;SDS011;19554;42.652;23.364;2023-07-09T12:22:14;3.75;;;3.35;;
33190;SDS011;19554;42.652;23.364;2023-07-09T12:24:44;5.80;;;3.65;;
33190;SDS011;19554;42.652;23.364;2023-07-09T12:29:44;6.65;;;3.55;;
33190;SDS011;19554;42.652;23.364;2023-07-09T12:32:11;4.22;;;3.53;;
33190;SDS011;19554;42.652;23.364;2023-07-09T12:34:40;4.25;;;3.28;;
33190;SDS011;19554;42.652;23.364;2023-07-09T12:37:13;4.60;;;3.28;;
33190;SDS011;19554;42.652;23.364;2023-07-09T12:39:40;5.38;;;3.35;;
33190;SDS011;19554;42.652;23.364;2023-07-09T12:42:09;5.30;;;3.50;;
33190;SDS011;19554;42.652;23.364;2023-07-09T12:44:40;8.35;;;3.90;;
33190;SDS011;19554;42.652;23.364;2023-07-09T12:47:07;6.95;;;3.53;;
33190;SDS011;19554;42.652;23.364;2023-07-09T12:49:40;6.85;;;3.95;;
33190;SDS011;19554;42.652;23.364;2023-07-09T12:52:09;6.15;;;3.60;;
33190;SDS011;19554;42.652;23.364;2023-07-09T12:54:51;5.35;;;3.17;;
33190;SDS011;19554;42.652;23.364;2023-07-09T12:57:20;4.40;;;3.03;;
33190;SDS011;19554;42.652;23.364;2023-07-09T12:59:46;3.97;;;3.47;;
33190;SDS011;19554;42.652;23.364;2023-07-09T13:02:22;3.55;;;3.25;;
33190;SDS011;19554;42.652;23.364;2023-07-09T13:04:50;5.72;;;3.58;;
33190;SDS011;19554;42.652;23.364;2023-07-09T13:10:25;6.80;;;3.55;;
33190;SDS011;19554;42.652;23.364;2023-07-09T13:12:52;5.95;;;3.30;;
33190;SDS011;19554;42.652;23.364;2023-07-09T13:17:45;5.68;;;3.22;;
33190;SDS011;19554;42.652;23.364;2023-07-09T13:20:10;6.25;;;3.20;;
33190;SDS011;19554;42.652;23.364;2023-07-09T13:22:35;6.18;;;3.58;;
33190;SDS011;19554;42.652;23.364;2023-07-09T13:25:01;7.13;;;3.33;;
33190;SDS011;19554;42.652;23.364;2023-07-09T13:27:26;6.88;;;3.92;;
33190;SDS011;19554;42.652;23.364;2023-07-09T13:29:51;5.97;;;3.10;;
33190;SDS011;19554;42.652;23.364;2023-07-09T13:32:17;7.03;;;3.72;;
33190;SDS011;19554;42.652;23.364;2023-07-09T13:34:43;9.77;;;3.78;;
33190;SDS011;19554;42.652;23.364;2023-07-09T13:37:10;4.28;;;3.10;;
33190;SDS011;19554;42.652;23.364;2023-07-09T13:39:37;9.90;;;4.03;;
33190;SDS011;19554;42.652;23.364;2023-07-09T13:42:03;6.53;;;3.50;;
33190;SDS011;19554;42.652;23.364;2023-07-09T13:44:33;5.22;;;3.08;;
33190;SDS011;19554;42.652;23.364;2023-07-09T13:47:00;6.68;;;3.70;;
33190;SDS011;19554;42.652;23.364;2023-07-09T13:49:26;6.38;;;3.53;;
33190;SDS011;19554;42.652;23.364;2023-07-09T13:51:53;7.47;;;3.97;;
33190;SDS011;19554;42.652;23.364;2023-07-09T13:54:25;6.45;;;3.70;;
33190;SDS011;19554;42.652;23.364;2023-07-09T13:56:56;4.50;;;3.53;;
33190;SDS011;19554;42.652;23.364;2023-07-09T13:59:23;6.53;;;3.45;;
33190;SDS011;19554;42.652;23.364;2023-07-09T14:01:50;4.50;;;3.75;;
33190;SDS011;19554;42.652;23.364;2023-07-09T14:04:18;3.95;;;3.58;;
33190;SDS011;19554;42.652;23.364;2023-07-09T14:06:45;6.93;;;4.18;;
33190;SDS011;19554;42.652;23.364;2023-07-09T14:09:13;5.38;;;3.63;;
33190;SDS011;19554;42.652;23.364;2023-07-09T14:11:41;9.75;;;3.78;;
33190;SDS011;19554;42.652;23.364;2023-07-09T14:14:19;8.70;;;3.58;;
33190;SDS011;19554;42.652;23.364;2023-07-09T14:16:47;5.97;;;3.72;;
33190;SDS011;19554;42.652;23.364;2023-07-09T14:19:18;4.65;;;3.28;;
33190;SDS011;19554;42.652;23.364;2023-07-09T14:21:45;5.35;;;3.20;;
33190;SDS011;19554;42.652;23.364;2023-07-09T14:24:16;7.82;;;3.45;;
33190;SDS011;19554;42.652;23.364;2023-07-09T14:26:45;6.95;;;3.42;;
33190;SDS011;19554;42.652;23.364;2023-07-09T14:29:12;5.55;;;3.60;;
33190;SDS011;19554;42.652;23.364;2023-07-09T14:31:39;3.85;;;3.47;;
33190;SDS011;19554;42.652;23.364;2023-07-09T14:34:13;6.22;;;3.55;;
33190;SDS011;19554;42.652;23.364;2023-07-09T14:36:41;5.57;;;3.97;;
33190;SDS011;19554;42.652;23.364;2023-07-09T14:39:10;5.95;;;3.70;;
33190;SDS011;19554;42.652;23.364;2023-07-09T14:41:35;6.93;;;3.65;;
33190;SDS011;19554;42.652;23.364;2023-07-09T14:44:01;9.00;;;3.83;;
33190;SDS011;19554;42.652;23.364;2023-07-09T14:46:27;3.65;;;3.25;;
33190;SDS011;19554;42.652;23.364;2023-07-09T14:48:53;6.07;;;3.50;;
33190;SDS011;19554;42.652;23.364;2023-07-09T14:51:18;3.95;;;3.38;;
33190;SDS011;19554;42.652;23.364;2023-07-09T14:53:45;9.38;;;4.00;;
33190;SDS011;19554;42.652;23.364;2023-07-09T14:56:11;7.45;;;4.03;;
33190;SDS011;19554;42.652;23.364;2023-07-09T14:58:38;5.60;;;4.57;;
33190;SDS011;19554;42.652;23.364;2023-07-09T15:01:03;6.15;;;4.28;;
33190;SDS011;19554;42.652;23.364;2023-07-09T15:03:29;6.60;;;4.78;;
33190;SDS011;19554;42.652;23.364;2023-07-09T15:05:55;7.38;;;3.80;;
33190;SDS011;19554;42.652;23.364;2023-07-09T15:08:22;5.30;;;3.33;;
33190;SDS011;19554;42.652;23.364;2023-07-09T15:10:49;14.32;;;3.90;;
33190;SDS011;19554;42.652;23.364;2023-07-09T15:13:18;7.50;;;3.67;;
33190;SDS011;19554;42.652;23.364;2023-07-09T15:15:45;6.10;;;3.10;;
33190;SDS011;19554;42.652;23.364;2023-07-09T15:18:12;7.28;;;3.60;;
33190;SDS011;19554;42.652;23.364;2023-07-09T15:20:39;4.88;;;3.22;;
33190;SDS011;19554;42.652;23.364;2023-07-09T15:23:10;6.03;;;3.35;;
33190;SDS011;19554;42.652;23.364;2023-07-09T15:25:36;4.90;;;3.63;;
33190;SDS011;19554;42.652;23.364;2023-07-09T15:28:01;5.40;;;3.80;;
33190;SDS011;19554;42.652;23.364;2023-07-09T15:30:28;7.32;;;4.20;;
33190;SDS011;19554;42.652;23.364;2023-07-09T15:32:55;5.35;;;3.65;;
33190;SDS011;19554;42.652;23.364;2023-07-09T15:35:23;5.80;;;3.35;;
33190;SDS011;19554;42.652;23.364;2023-07-09T15:37:50;8.23;;;3.17;;
33190;SDS011;19554;42.652;23.364;2023-07-09T15:40:21;6.88;;;4.03;;
33190;SDS011;19554;42.652;23.364;2023-07-09T15:42:49;6.65;;;4.60;;